KLAN/LAN METAR and TAF weather

Enter ICAO airport designator
Station Type Date Time Source
KLAN METAR 2021/07/28 19:53 UTC NOAA

KLAN 281953Z 00000KT 10SM SCT060 29/17 A3002 RMK AO2 SLP162 T02890172


Station Type Date Time Source
KLAN Decoded METAR 2021/07/28 19:53 UTC NOAA

CAPITAL CITY AIRPORT, MI, United States (KLAN) 42-47N 084-35W 264M
Jul 28, 2021 - 03:53 PM EDT / 2021.07.28 1953 UTC
Wind: Calm:0
Visibility: 10 mile(s):0
Sky conditions: partly cloudy
Temperature: 84.0 F (28.9 C)
Dew Point: 63.0 F (17.2 C)
Relative Humidity: 49%
Pressure (altimeter): 30.02 in. Hg (1016 hPa)
ob: KLAN 281953Z 00000KT 10SM SCT060 29/17 A3002 RMK AO2 SLP162 T02890172
cycle: 20

Station Type Date Time Source
KLAN TAF 2021/07/28 18:42 UTC NOAA

TAF KLAN 281740Z 2818/2918 VRB05KT P6SM FEW040 SCT250
FM290000 19005KT P6SM SCT200
FM290830 29025G35KT 2SM TSRA BR OVC008CB
FM290900 VRB06KT 4SM -RA BR VCTS OVC010CB
FM291000 23005KT 6SM -RA BR OVC090
FM291400 30009KT P6SM OVC010
FM291600 33010KT P6SM FEW015 SCT035

Example: see airport list